createdAt,value
2023-03-31T00:00:18.757Z,23.58
2023-03-31T00:02:47.491Z,20.08
2023-03-31T00:05:18.312Z,23.17
2023-03-31T00:07:45.954Z,18.27
2023-03-31T00:10:18.467Z,16.75
2023-03-31T00:12:45.925Z,16.23
2023-03-31T00:15:13.243Z,16.40
2023-03-31T00:17:40.058Z,20.33
2023-03-31T00:20:12.327Z,18.15
2023-03-31T00:22:42.370Z,20.60
2023-03-31T00:25:11.146Z,15.98
2023-03-31T00:27:38.224Z,16.88
2023-03-31T00:30:05.664Z,17.15
2023-03-31T00:32:33.448Z,18.45
2023-03-31T00:35:02.317Z,14.88
2023-03-31T00:37:29.589Z,19.38
2023-03-31T00:39:57.102Z,14.88
2023-03-31T00:42:24.135Z,16.95
2023-03-31T00:45:18.817Z,19.77
2023-03-31T00:47:48.176Z,14.90
2023-03-31T00:50:26.090Z,13.70
2023-03-31T00:53:12.856Z,14.60
2023-03-31T00:55:50.805Z,12.40
2023-03-31T00:58:20.315Z,16.50
2023-03-31T01:00:49.174Z,20.67
2023-03-31T01:03:16.348Z,16.40
2023-03-31T01:05:53.385Z,10.82
2023-03-31T01:08:24.488Z,14.55
2023-03-31T01:10:54.918Z,18.00
2023-03-31T01:13:22.731Z,20.38
2023-03-31T01:15:49.894Z,16.00
2023-03-31T01:18:21.219Z,15.88
2023-03-31T01:20:59.963Z,16.77
2023-03-31T01:23:49.705Z,17.77
2023-03-31T01:26:46.963Z,16.50
2023-03-31T01:29:40.435Z,20.75
2023-03-31T01:32:07.133Z,17.08
2023-03-31T01:35:11.061Z,16.00
2023-03-31T01:37:47.164Z,13.90
2023-03-31T01:40:42.700Z,17.73
2023-03-31T01:43:22.736Z,21.90
2023-03-31T01:46:23.958Z,18.58
2023-03-31T01:49:07.905Z,18.27
2023-03-31T01:51:50.199Z,21.80
2023-03-31T01:54:22.998Z,20.65
2023-03-31T01:56:51.510Z,18.10
2023-03-31T01:59:23.904Z,21.20
2023-03-31T02:02:10.216Z,14.68
2023-03-31T02:04:43.623Z,21.13
2023-03-31T02:07:14.878Z,22.33
2023-03-31T02:09:47.882Z,22.65
2023-03-31T02:12:16.520Z,18.83
2023-03-31T02:14:46.822Z,19.35
2023-03-31T02:17:18.948Z,20.38
2023-03-31T02:19:49.544Z,23.35
2023-03-31T02:22:19.688Z,14.73
2023-03-31T02:24:48.848Z,15.55
2023-03-31T02:27:37.075Z,21.55
2023-03-31T02:30:04.640Z,20.38
2023-03-31T02:32:36.586Z,23.40
2023-03-31T02:35:04.179Z,18.23
2023-03-31T02:37:31.231Z,17.02
2023-03-31T02:40:01.490Z,18.40
2023-03-31T02:42:28.314Z,16.85
2023-03-31T02:44:55.058Z,17.30
2023-03-31T02:47:22.414Z,16.58
2023-03-31T02:49:54.459Z,16.13
2023-03-31T02:52:49.092Z,17.38
2023-03-31T02:56:00.550Z,17.92
2023-03-31T02:58:35.080Z,19.88
2023-03-31T03:01:04.862Z,17.40
2023-03-31T03:03:31.618Z,14.40
2023-03-31T03:06:13.906Z,12.95
2023-03-31T03:08:59.202Z,17.38
2023-03-31T03:11:37.819Z,14.60
2023-03-31T03:14:05.490Z,12.60
2023-03-31T03:17:16.830Z,9.50
2023-03-31T03:19:43.602Z,8.07
2023-03-31T03:22:10.535Z,6.05
2023-03-31T03:24:37.238Z,11.93
2023-03-31T03:27:04.154Z,7.13
2023-03-31T03:29:30.904Z,11.40
2023-03-31T03:31:57.932Z,9.18
2023-03-31T03:34:25.719Z,9.38
2023-03-31T03:36:52.528Z,8.18
2023-03-31T03:39:19.261Z,9.38
2023-03-31T03:41:46.865Z,10.05
2023-03-31T03:44:13.664Z,8.73
2023-03-31T03:46:40.586Z,10.30
2023-03-31T03:49:07.419Z,11.20
2023-03-31T03:51:34.185Z,17.83
2023-03-31T03:54:00.919Z,17.17
2023-03-31T03:56:28.299Z,13.77
2023-03-31T03:58:55.064Z,12.05
2023-03-31T04:01:22.657Z,12.32
2023-03-31T04:03:49.728Z,13.68
2023-03-31T04:06:16.495Z,15.13
2023-03-31T04:08:43.177Z,16.05
2023-03-31T04:11:19.103Z,20.70
2023-03-31T04:13:47.041Z,20.10
2023-03-31T04:16:14.085Z,16.52
2023-03-31T04:18:43.590Z,15.20
2023-03-31T04:21:15.193Z,14.88
2023-03-31T04:23:46.328Z,20.08
2023-03-31T04:26:13.788Z,18.10
2023-03-31T04:28:42.865Z,18.45
2023-03-31T04:31:15.395Z,20.23
2023-03-31T04:33:46.145Z,15.50
2023-03-31T04:36:19.142Z,12.02
2023-03-31T04:39:02.608Z,18.55
2023-03-31T04:41:29.408Z,11.73
2023-03-31T04:43:56.168Z,15.48
2023-03-31T04:46:23.207Z,11.32
2023-03-31T04:48:49.974Z,12.73
2023-03-31T04:51:16.813Z,15.18
2023-03-31T04:53:43.595Z,12.13
2023-03-31T04:56:10.739Z,8.07
2023-03-31T04:58:38.003Z,10.98
2023-03-31T05:01:08.536Z,11.93
2023-03-31T05:03:35.385Z,7.55
2023-03-31T05:06:02.365Z,12.15
2023-03-31T05:08:29.394Z,9.90
2023-03-31T05:10:56.197Z,8.27
2023-03-31T05:13:22.984Z,5.30
2023-03-31T05:15:51.659Z,10.35
2023-03-31T05:18:18.998Z,5.93
2023-03-31T05:20:46.455Z,8.07
2023-03-31T05:23:13.626Z,6.28
2023-03-31T05:25:42.252Z,6.95
2023-03-31T05:28:10.044Z,5.22
2023-03-31T05:30:36.793Z,5.18
2023-03-31T05:33:03.546Z,4.10
2023-03-31T05:35:30.370Z,6.18
2023-03-31T05:37:57.101Z,4.43
2023-03-31T05:40:23.864Z,3.42
2023-03-31T05:42:50.839Z,3.55
2023-03-31T05:45:18.047Z,4.55
2023-03-31T05:47:44.797Z,6.53
2023-03-31T05:50:14.033Z,6.10
2023-03-31T05:52:41.440Z,8.77
2023-03-31T05:55:08.813Z,5.95
2023-03-31T05:57:35.646Z,4.35
2023-03-31T06:00:04.245Z,4.07
2023-03-31T06:02:31.340Z,5.30
2023-03-31T06:04:58.180Z,6.18
2023-03-31T06:07:25.146Z,5.82
2023-03-31T06:09:51.889Z,6.10
2023-03-31T06:12:18.695Z,4.65
2023-03-31T06:14:45.424Z,5.35
2023-03-31T06:17:12.142Z,7.70
2023-03-31T06:19:40.118Z,6.95
2023-03-31T06:22:06.807Z,6.63
2023-03-31T06:24:33.611Z,6.22
2023-03-31T06:27:01.248Z,7.28
2023-03-31T06:29:28.410Z,8.90
2023-03-31T06:31:55.475Z,8.85
2023-03-31T06:34:22.337Z,8.77
2023-03-31T06:36:49.185Z,8.80
2023-03-31T06:39:16.241Z,12.02
2023-03-31T06:41:42.982Z,9.88
2023-03-31T06:44:10.242Z,7.78
2023-03-31T06:46:37.161Z,6.32
2023-03-31T06:49:03.876Z,8.23
2023-03-31T06:51:32.598Z,8.48
2023-03-31T06:53:59.636Z,9.45
2023-03-31T06:56:27.380Z,11.52
2023-03-31T06:58:54.221Z,10.68
2023-03-31T07:01:21.038Z,9.00
2023-03-31T07:03:47.836Z,8.85
2023-03-31T07:06:14.758Z,13.15
2023-03-31T07:08:41.494Z,11.10
2023-03-31T07:11:08.549Z,12.25
2023-03-31T07:13:35.475Z,10.00
2023-03-31T07:16:02.227Z,10.70
2023-03-31T07:18:35.101Z,12.23
2023-03-31T07:21:04.425Z,12.63
2023-03-31T07:23:32.720Z,11.13
2023-03-31T07:26:02.712Z,11.00
2023-03-31T07:28:30.237Z,16.92
2023-03-31T07:30:56.973Z,15.10
2023-03-31T07:33:23.853Z,16.13
2023-03-31T07:36:00.205Z,17.85
2023-03-31T07:38:34.926Z,17.60
2023-03-31T07:41:08.424Z,16.33
2023-03-31T07:43:36.920Z,17.65
2023-03-31T07:46:05.652Z,15.25
2023-03-31T07:48:33.851Z,11.00
2023-03-31T07:51:00.625Z,18.90
2023-03-31T07:53:27.356Z,14.82
2023-03-31T07:55:54.038Z,18.58
2023-03-31T07:58:20.799Z,17.27
2023-03-31T08:00:47.575Z,17.13
2023-03-31T08:03:14.701Z,13.27
2023-03-31T08:05:41.476Z,16.40
2023-03-31T08:08:08.189Z,17.00
2023-03-31T08:10:34.867Z,14.80
2023-03-31T08:13:01.615Z,15.80
2023-03-31T08:15:28.645Z,17.75
2023-03-31T08:17:55.370Z,13.50
2023-03-31T08:20:22.239Z,17.73
2023-03-31T08:22:49.003Z,19.83
2023-03-31T08:25:16.298Z,22.02
2023-03-31T08:27:43.003Z,18.00
2023-03-31T08:30:11.581Z,20.38
2023-03-31T08:32:38.775Z,14.30
2023-03-31T08:35:06.362Z,20.90
2023-03-31T08:37:33.266Z,21.45
2023-03-31T08:40:00.475Z,21.95
2023-03-31T08:42:47.591Z,21.00
2023-03-31T08:45:24.405Z,19.85
2023-03-31T08:47:55.850Z,24.25
2023-03-31T08:50:27.466Z,26.58
2023-03-31T08:55:53.799Z,19.27
2023-03-31T08:58:46.307Z,23.58
2023-03-31T09:01:47.895Z,23.55
2023-03-31T09:04:24.640Z,19.92
2023-03-31T09:07:03.251Z,21.35
2023-03-31T09:09:39.831Z,18.17
2023-03-31T09:12:11.979Z,19.65
2023-03-31T09:14:44.950Z,23.45
2023-03-31T09:17:23.946Z,21.63
2023-03-31T09:20:09.257Z,18.80
2023-03-31T09:23:02.054Z,23.80
2023-03-31T09:25:36.201Z,22.10
2023-03-31T09:28:06.989Z,26.17
2023-03-31T09:30:36.674Z,24.60
2023-03-31T09:33:18.353Z,16.92
2023-03-31T09:35:46.475Z,26.63
2023-03-31T09:38:14.840Z,24.48
2023-03-31T09:40:42.447Z,20.75
2023-03-31T09:43:26.125Z,24.52
2023-03-31T09:46:08.482Z,22.88
2023-03-31T09:48:38.646Z,28.98
2023-03-31T09:51:17.575Z,29.67
2023-03-31T09:53:52.768Z,25.35
2023-03-31T09:56:34.912Z,26.25
2023-03-31T09:59:03.757Z,23.23
2023-03-31T10:01:30.611Z,22.55
2023-03-31T10:03:58.317Z,22.60
2023-03-31T10:06:26.425Z,23.05
2023-03-31T10:08:56.470Z,26.15
2023-03-31T10:11:24.033Z,20.58
2023-03-31T10:14:04.083Z,15.90
2023-03-31T10:16:32.143Z,18.58
2023-03-31T10:19:14.142Z,20.27
2023-03-31T10:21:41.107Z,16.88
2023-03-31T10:24:11.138Z,22.40
2023-03-31T10:26:40.036Z,18.48
2023-03-31T10:29:15.666Z,19.17
2023-03-31T10:31:42.548Z,21.00
2023-03-31T10:34:16.993Z,20.85
2023-03-31T10:36:49.720Z,14.35
2023-03-31T10:39:17.706Z,17.27
2023-03-31T10:41:51.397Z,14.55
2023-03-31T10:44:33.502Z,18.83
2023-03-31T10:47:33.134Z,16.42
2023-03-31T10:50:04.094Z,15.68
2023-03-31T10:52:48.417Z,18.48
2023-03-31T10:55:24.922Z,15.60
2023-03-31T10:58:06.483Z,19.00
2023-03-31T11:01:07.544Z,15.98
2023-03-31T11:03:59.480Z,15.63
2023-03-31T11:09:27.399Z,13.18
2023-03-31T11:12:12.789Z,16.42
2023-03-31T11:14:48.283Z,20.42
2023-03-31T11:17:33.026Z,11.32
2023-03-31T11:20:19.549Z,18.65
2023-03-31T11:22:55.118Z,15.18
2023-03-31T11:25:39.295Z,9.77
2023-03-31T11:28:24.696Z,10.50
2023-03-31T11:31:05.889Z,14.93
2023-03-31T11:33:40.637Z,13.18
2023-03-31T11:36:23.316Z,9.52
2023-03-31T11:38:55.962Z,10.10
2023-03-31T11:41:37.933Z,12.70
2023-03-31T11:44:09.533Z,8.52
2023-03-31T11:49:15.538Z,7.75
2023-03-31T11:51:42.238Z,11.20
2023-03-31T11:54:18.259Z,9.00
2023-03-31T11:56:45.653Z,8.68
2023-03-31T11:59:17.309Z,9.18
2023-03-31T12:04:44.256Z,9.43
2023-03-31T12:07:39.660Z,9.57
2023-03-31T12:10:31.132Z,9.75
2023-03-31T12:13:14.468Z,10.70
2023-03-31T12:15:46.291Z,10.88
2023-03-31T12:18:18.613Z,13.43
2023-03-31T12:20:51.094Z,14.13
2023-03-31T12:23:22.394Z,14.30
2023-03-31T12:26:07.303Z,12.88
2023-03-31T12:28:38.196Z,15.68
2023-03-31T12:31:08.146Z,12.27
2023-03-31T12:33:41.990Z,12.75
2023-03-31T12:36:32.719Z,12.90
2023-03-31T12:39:08.827Z,13.95
2023-03-31T12:41:54.287Z,11.80
2023-03-31T12:44:48.814Z,15.25
2023-03-31T12:47:39.886Z,9.93
2023-03-31T12:50:46.964Z,8.63
2023-03-31T12:53:43.970Z,17.42
2023-03-31T12:56:10.993Z,11.98
2023-03-31T12:58:39.940Z,10.30
2023-03-31T13:01:16.109Z,8.25
2023-03-31T13:03:55.111Z,11.70
2023-03-31T13:06:29.239Z,7.50
2023-03-31T13:09:11.529Z,9.05
2023-03-31T13:11:44.532Z,10.48
2023-03-31T13:14:21.910Z,6.60
2023-03-31T13:16:50.099Z,6.93
2023-03-31T13:19:34.983Z,6.55
2023-03-31T13:22:06.877Z,5.07
2023-03-31T13:27:31.340Z,10.55
2023-03-31T13:29:58.107Z,8.05
2023-03-31T13:32:26.501Z,4.63
2023-03-31T13:35:05.689Z,6.20
2023-03-31T13:37:58.079Z,8.52
2023-03-31T13:41:08.081Z,5.93
2023-03-31T13:44:12.013Z,9.35
2023-03-31T13:46:45.662Z,8.60
2023-03-31T13:49:28.134Z,10.48
2023-03-31T13:52:09.510Z,7.18
2023-03-31T13:54:55.038Z,9.93
2023-03-31T13:57:54.998Z,5.35
2023-03-31T14:00:31.561Z,11.32
2023-03-31T14:03:01.654Z,10.98
2023-03-31T14:05:39.700Z,10.18
2023-03-31T14:08:15.203Z,9.48
2023-03-31T14:10:43.897Z,9.95
2023-03-31T14:13:17.012Z,9.25
2023-03-31T14:15:54.391Z,7.65
2023-03-31T14:18:46.189Z,8.88
2023-03-31T14:21:21.062Z,8.13
2023-03-31T14:24:18.620Z,10.05
2023-03-31T14:26:53.956Z,10.05
2023-03-31T14:29:38.054Z,9.13
2023-03-31T14:32:31.949Z,9.02
2023-03-31T14:35:28.932Z,9.52
2023-03-31T14:37:56.756Z,8.35
2023-03-31T14:40:24.612Z,11.48
2023-03-31T14:42:51.381Z,9.73
2023-03-31T14:45:25.135Z,8.60
2023-03-31T14:47:57.722Z,8.27
2023-03-31T14:50:31.320Z,9.80
2023-03-31T14:52:59.618Z,9.43
2023-03-31T14:55:44.061Z,6.85
2023-03-31T14:58:14.682Z,9.18
2023-03-31T15:00:42.601Z,12.15
2023-03-31T15:03:14.998Z,9.25
2023-03-31T15:05:43.722Z,10.32
2023-03-31T15:08:23.809Z,8.90
2023-03-31T15:11:02.367Z,10.13
2023-03-31T15:14:00.791Z,10.52
2023-03-31T15:16:42.365Z,9.15
2023-03-31T15:19:26.116Z,9.75
2023-03-31T15:22:01.878Z,10.27
2023-03-31T15:24:29.538Z,9.63
2023-03-31T15:27:18.057Z,9.05
2023-03-31T15:29:55.234Z,9.95
2023-03-31T15:32:35.753Z,8.30
2023-03-31T15:35:18.627Z,8.82
2023-03-31T15:37:49.579Z,7.63
2023-03-31T15:40:21.347Z,10.68
2023-03-31T15:43:01.696Z,10.23
2023-03-31T15:45:50.203Z,8.63
2023-03-31T15:48:34.790Z,7.82
2023-03-31T15:51:13.649Z,9.75
2023-03-31T15:53:54.529Z,7.47
2023-03-31T15:56:27.156Z,5.57
2023-03-31T15:59:00.879Z,5.57
2023-03-31T16:01:34.631Z,8.60
2023-03-31T16:04:11.593Z,5.47
2023-03-31T16:06:38.255Z,9.13
2023-03-31T16:09:08.206Z,7.18
2023-03-31T16:11:46.822Z,9.13
2023-03-31T16:14:27.362Z,5.05
2023-03-31T16:17:02.882Z,7.28
2023-03-31T16:19:32.452Z,5.72
2023-03-31T16:22:02.004Z,6.53
2023-03-31T16:24:35.350Z,5.78
2023-03-31T16:27:06.760Z,8.75
2023-03-31T16:29:35.332Z,8.88
2023-03-31T16:32:14.256Z,7.40
2023-03-31T16:35:00.280Z,8.93
2023-03-31T16:37:27.397Z,6.05
2023-03-31T16:39:54.584Z,7.93
2023-03-31T16:42:21.774Z,7.25
2023-03-31T16:47:36.554Z,7.07
2023-03-31T16:50:07.472Z,6.63
2023-03-31T16:52:35.800Z,5.78
2023-03-31T16:55:02.656Z,6.07
2023-03-31T16:57:29.478Z,4.47
2023-03-31T16:59:58.750Z,6.75
2023-03-31T17:02:26.239Z,7.18
2023-03-31T17:04:56.608Z,5.93
2023-03-31T17:07:26.927Z,9.98
2023-03-31T17:09:53.729Z,18.38
2023-03-31T17:12:20.923Z,24.02
2023-03-31T17:14:47.778Z,25.98
2023-03-31T17:17:17.370Z,21.95
2023-03-31T17:19:44.669Z,22.77
2023-03-31T17:22:11.449Z,28.65
2023-03-31T17:24:38.286Z,19.02
2023-03-31T17:27:05.205Z,18.80
2023-03-31T17:29:32.332Z,26.67
2023-03-31T17:31:59.107Z,26.75
2023-03-31T17:34:26.079Z,29.63
2023-03-31T17:36:54.826Z,24.77
2023-03-31T17:39:21.610Z,25.85
2023-03-31T17:41:48.310Z,21.67
2023-03-31T17:44:15.042Z,24.65
2023-03-31T17:46:42.212Z,27.88
2023-03-31T17:49:09.003Z,27.08
2023-03-31T17:51:36.376Z,28.30
2023-03-31T17:54:03.868Z,26.15
2023-03-31T17:56:30.698Z,28.65
2023-03-31T17:58:57.650Z,32.45
2023-03-31T18:01:24.410Z,31.38
2023-03-31T18:03:51.165Z,35.20
2023-03-31T18:06:18.031Z,36.63
2023-03-31T18:08:44.844Z,37.42
2023-03-31T18:11:13.328Z,28.88
2023-03-31T18:13:40.644Z,28.23
2023-03-31T18:16:09.569Z,27.10
2023-03-31T18:18:37.886Z,28.48
2023-03-31T18:21:06.511Z,27.90
2023-03-31T18:23:33.912Z,33.47
2023-03-31T18:26:01.781Z,33.70
2023-03-31T18:28:28.670Z,26.65
2023-03-31T18:30:55.385Z,29.45
2023-03-31T18:33:22.344Z,26.35
2023-03-31T18:35:50.178Z,26.13
2023-03-31T18:38:18.407Z,31.23
2023-03-31T18:40:53.344Z,23.90
2023-03-31T18:43:22.441Z,20.10
2023-03-31T18:45:49.915Z,27.00
2023-03-31T18:48:18.525Z,25.80
2023-03-31T18:50:46.189Z,32.60
2023-03-31T18:53:15.262Z,37.20
2023-03-31T18:55:42.601Z,37.53
2023-03-31T18:58:09.766Z,33.83
2023-03-31T19:00:36.657Z,38.83
2023-03-31T19:03:03.653Z,34.50
2023-03-31T19:05:30.562Z,36.95
2023-03-31T19:07:57.369Z,26.80
2023-03-31T19:10:24.143Z,28.30
2023-03-31T19:12:50.995Z,26.80
2023-03-31T19:15:18.079Z,25.83
2023-03-31T19:17:44.925Z,32.03
2023-03-31T19:20:16.494Z,31.08
2023-03-31T19:22:49.323Z,26.90
2023-03-31T19:25:18.255Z,31.33
2023-03-31T19:27:46.075Z,25.63
2023-03-31T19:30:22.420Z,22.35
2023-03-31T19:32:50.192Z,23.98
2023-03-31T19:35:20.861Z,23.65
2023-03-31T19:37:48.615Z,21.98
2023-03-31T19:40:15.435Z,28.65
2023-03-31T19:42:42.418Z,34.17
2023-03-31T19:45:09.702Z,37.10
2023-03-31T19:47:36.628Z,42.72
2023-03-31T19:50:04.068Z,36.50
2023-03-31T19:52:30.888Z,39.22
2023-03-31T19:54:57.808Z,32.28
2023-03-31T19:57:24.617Z,33.67
2023-03-31T19:59:51.320Z,37.72
2023-03-31T20:02:18.544Z,41.70
2023-03-31T20:04:45.611Z,43.55
2023-03-31T20:07:12.633Z,47.00
2023-03-31T20:09:39.725Z,37.30
2023-03-31T20:12:06.967Z,35.67
2023-03-31T20:14:34.203Z,39.35
2023-03-31T20:17:02.444Z,40.47
2023-03-31T20:19:29.563Z,34.08
2023-03-31T20:21:57.886Z,46.25
2023-03-31T20:24:24.822Z,37.70
2023-03-31T20:26:51.963Z,31.67
2023-03-31T20:29:18.917Z,37.45
2023-03-31T20:31:46.023Z,33.22
2023-03-31T20:34:14.965Z,43.17
2023-03-31T20:36:43.916Z,34.15
2023-03-31T20:39:12.842Z,42.08
2023-03-31T20:41:40.121Z,44.67
2023-03-31T20:44:11.410Z,38.83
2023-03-31T20:46:41.667Z,44.15
2023-03-31T20:49:08.721Z,39.92
2023-03-31T20:51:37.496Z,49.75
2023-03-31T20:54:04.831Z,40.17
2023-03-31T20:56:34.956Z,43.58
2023-03-31T20:59:02.097Z,37.42
2023-03-31T21:01:32.589Z,47.28
2023-03-31T21:04:01.780Z,41.83
2023-03-31T21:06:31.053Z,46.47
2023-03-31T21:08:58.522Z,38.88
2023-03-31T21:11:25.961Z,53.10
2023-03-31T21:13:53.349Z,39.97
2023-03-31T21:16:21.314Z,39.85
2023-03-31T21:18:48.324Z,47.78
2023-03-31T21:21:24.344Z,49.38
2023-03-31T21:23:51.623Z,51.50
2023-03-31T21:26:18.835Z,44.50
2023-03-31T21:28:46.030Z,43.05
2023-03-31T21:31:18.170Z,45.42
2023-03-31T21:33:46.725Z,41.15
2023-03-31T21:36:16.668Z,44.42
2023-03-31T21:38:44.729Z,37.53
2023-03-31T21:41:14.253Z,34.65
2023-03-31T21:43:41.782Z,37.95
2023-03-31T21:46:09.029Z,49.05
2023-03-31T21:48:35.998Z,34.22
2023-03-31T21:51:03.194Z,46.10
2023-03-31T21:53:31.475Z,46.33
2023-03-31T21:55:59.007Z,37.25
2023-03-31T21:58:28.788Z,39.30
2023-03-31T22:01:01.190Z,38.53
2023-03-31T22:03:29.022Z,38.50
2023-03-31T22:05:56.924Z,37.28
2023-03-31T22:08:24.333Z,52.47
2023-03-31T22:10:52.173Z,41.95
2023-03-31T22:13:21.379Z,53.40
2023-03-31T22:15:48.801Z,66.68
2023-03-31T22:18:17.046Z,55.35
2023-03-31T22:20:44.543Z,75.35
2023-03-31T22:23:11.451Z,72.97
2023-03-31T22:25:38.222Z,70.60
2023-03-31T22:28:07.090Z,76.25
2023-03-31T22:30:34.183Z,79.93
2023-03-31T22:33:01.421Z,72.03
2023-03-31T22:35:28.920Z,75.68
2023-03-31T22:37:55.654Z,64.40
2023-03-31T22:40:22.482Z,83.90
2023-03-31T22:42:49.285Z,79.13
2023-03-31T22:45:16.363Z,74.45
2023-03-31T22:47:43.224Z,80.40
2023-03-31T22:50:11.211Z,80.90
2023-03-31T22:52:38.135Z,72.30
2023-03-31T22:55:06.172Z,93.38
2023-03-31T22:57:33.293Z,76.93
2023-03-31T23:00:00.750Z,76.72
2023-03-31T23:02:27.585Z,76.43
2023-03-31T23:04:54.454Z,63.05
2023-03-31T23:07:22.253Z,80.60
2023-03-31T23:09:49.089Z,64.75
2023-03-31T23:12:16.300Z,74.75
2023-03-31T23:14:43.042Z,67.97
2023-03-31T23:17:09.727Z,65.53
2023-03-31T23:19:37.754Z,71.80
2023-03-31T23:22:05.946Z,79.82
2023-03-31T23:24:33.281Z,63.95
2023-03-31T23:27:00.030Z,81.07
2023-03-31T23:29:27.350Z,94.78
2023-03-31T23:31:54.149Z,108.00
2023-03-31T23:34:21.321Z,110.47
2023-03-31T23:36:48.180Z,123.85
2023-03-31T23:39:14.955Z,134.98
2023-03-31T23:41:41.660Z,145.32
2023-03-31T23:44:08.412Z,141.35
2023-03-31T23:46:36.190Z,144.40
2023-03-31T23:49:04.824Z,157.88
2023-03-31T23:51:31.591Z,153.02
2023-03-31T23:53:58.298Z,162.15
2023-03-31T23:56:27.079Z,156.63
2023-03-31T23:58:54.127Z,148.50
